createdAt,value
2018-01-27T00:01:39.550Z,38.07
2018-01-27T00:06:42.178Z,30.53
2018-01-27T00:11:45.214Z,35.60
2018-01-27T00:16:48.651Z,34.63
2018-01-27T00:21:51.377Z,40.43
2018-01-27T00:26:54.012Z,38.63
2018-01-27T00:31:57.251Z,37.77
2018-01-27T00:37:00.671Z,36.97
2018-01-27T00:42:05.070Z,40.90
2018-01-27T00:47:07.702Z,44.47
2018-01-27T00:52:11.302Z,41.23
2018-01-27T00:57:13.970Z,42.97
2018-01-27T01:02:16.701Z,44.10
2018-01-27T01:07:19.333Z,41.77
2018-01-27T01:12:23.077Z,44.07
2018-01-27T01:17:25.721Z,43.50
2018-01-27T01:22:28.529Z,42.83
2018-01-27T01:27:31.149Z,39.33
2018-01-27T01:32:35.125Z,39.17
2018-01-27T01:37:37.785Z,34.53
2018-01-27T01:42:47.385Z,33.93
2018-01-27T01:47:50.165Z,35.50
2018-01-27T01:52:53.787Z,33.83
2018-01-27T01:57:56.434Z,35.73
2018-01-27T02:02:59.838Z,39.70
2018-01-27T02:08:02.455Z,38.93
2018-01-27T02:13:05.650Z,37.40
2018-01-27T02:18:09.110Z,35.87
2018-01-27T02:23:13.497Z,35.90
2018-01-27T02:28:16.134Z,36.60
2018-01-27T02:33:18.882Z,36.87
2018-01-27T02:38:21.544Z,36.43
2018-01-27T02:43:25.609Z,31.20
2018-01-27T02:48:28.226Z,41.43
2018-01-27T02:53:31.578Z,36.43
2018-01-27T02:58:34.315Z,34.40
2018-01-27T03:03:37.774Z,43.33
2018-01-27T03:08:41.202Z,41.83
2018-01-27T03:13:44.603Z,43.17
2018-01-27T03:18:47.321Z,47.33
2018-01-27T03:23:50.641Z,54.33
2018-01-27T03:28:54.066Z,42.27
2018-01-27T03:33:57.318Z,44.57
2018-01-27T03:38:59.971Z,42.43
2018-01-27T03:44:02.736Z,44.13
2018-01-27T03:49:05.404Z,52.33
2018-01-27T03:54:09.575Z,52.43
2018-01-27T03:59:12.229Z,49.90
2018-01-27T04:04:16.692Z,45.77
2018-01-27T04:09:19.416Z,49.57
2018-01-27T04:14:22.921Z,42.30
2018-01-27T04:19:25.616Z,43.03
2018-01-27T04:24:28.831Z,48.73
2018-01-27T04:29:31.533Z,50.97
2018-01-27T04:34:35.043Z,44.50
2018-01-27T04:39:37.718Z,45.90
2018-01-27T04:44:41.874Z,54.13
2018-01-27T04:49:44.490Z,57.40
2018-01-27T04:54:47.579Z,64.00
2018-01-27T04:59:51.009Z,64.83
2018-01-27T05:04:53.806Z,57.83
2018-01-27T05:09:56.421Z,58.07
2018-01-27T05:14:59.830Z,65.73
2018-01-27T05:20:02.502Z,72.50
2018-01-27T05:25:06.888Z,67.47
2018-01-27T05:30:09.550Z,69.43
2018-01-27T05:35:13.217Z,70.50
2018-01-27T05:40:15.985Z,69.53
2018-01-27T05:45:19.543Z,64.23
2018-01-27T05:50:22.160Z,65.80
2018-01-27T05:55:25.371Z,66.57
2018-01-27T06:00:28.047Z,64.27
2018-01-27T06:05:30.846Z,63.83
2018-01-27T06:10:33.517Z,68.40
2018-01-27T06:15:36.872Z,67.87
2018-01-27T06:20:39.545Z,69.77
2018-01-27T06:25:42.762Z,79.73
2018-01-27T06:30:45.449Z,66.70
2018-01-27T06:35:48.534Z,63.80
2018-01-27T06:40:51.964Z,75.73
2018-01-27T06:45:56.224Z,74.83
2018-01-27T06:50:58.844Z,63.50
2018-01-27T06:56:02.244Z,68.13
2018-01-27T07:01:04.910Z,72.30
2018-01-27T07:06:08.912Z,83.33
2018-01-27T07:11:11.586Z,82.03
2018-01-27T07:16:14.622Z,74.20
2018-01-27T07:21:17.289Z,85.07
2018-01-27T07:26:20.487Z,80.00
2018-01-27T07:31:23.155Z,80.10
2018-01-27T07:36:27.324Z,82.23
2018-01-27T07:41:30.314Z,78.77
2018-01-27T07:46:33.298Z,84.27
2018-01-27T07:51:35.949Z,74.93
2018-01-27T07:56:38.983Z,71.70
2018-01-27T08:01:41.648Z,82.40
2018-01-27T08:06:44.551Z,72.20
2018-01-27T08:11:47.213Z,80.47
2018-01-27T08:16:51.106Z,85.77
2018-01-27T08:21:53.762Z,79.43
2018-01-27T08:26:56.695Z,76.37
2018-01-27T08:31:59.349Z,80.37
2018-01-27T08:37:03.062Z,84.20
2018-01-27T08:42:05.742Z,78.17
2018-01-27T08:47:09.085Z,86.80
2018-01-27T08:52:12.503Z,76.20
2018-01-27T08:57:16.779Z,72.60
2018-01-27T09:02:19.443Z,78.77
2018-01-27T09:07:23.326Z,77.53
2018-01-27T09:12:25.996Z,113.53
2018-01-27T09:17:29.315Z,74.13
2018-01-27T09:22:31.941Z,63.93
2018-01-27T09:27:35.383Z,96.37
2018-01-27T09:32:38.030Z,68.00
2018-01-27T09:37:41.357Z,63.03
2018-01-27T09:42:44.028Z,72.10
2018-01-27T09:47:48.023Z,69.53
2018-01-27T09:52:50.658Z,55.40
2018-01-27T09:57:53.326Z,54.93
2018-01-27T10:02:56.115Z,58.03
2018-01-27T10:07:59.147Z,54.23
2018-01-27T10:13:02.648Z,46.93
2018-01-27T10:18:06.380Z,44.67
2018-01-27T10:23:09.114Z,40.87
2018-01-27T10:28:12.773Z,37.53
2018-01-27T10:33:15.546Z,39.93
2018-01-27T10:38:19.265Z,36.53
2018-01-27T10:43:22.888Z,39.40
2018-01-27T10:48:26.967Z,41.47
2018-01-27T10:53:30.035Z,40.90
2018-01-27T10:58:33.558Z,40.83
2018-01-27T11:03:36.325Z,43.37
2018-01-27T11:08:40.108Z,37.73
2018-01-27T11:13:42.985Z,39.00
2018-01-27T11:18:46.181Z,40.63
2018-01-27T11:23:49.201Z,34.10
2018-01-27T11:28:52.785Z,34.70
2018-01-27T11:33:56.959Z,34.83
2018-01-27T11:39:00.582Z,34.53
2018-01-27T11:44:03.516Z,33.57
2018-01-27T11:49:07.615Z,33.57
2018-01-27T11:54:10.831Z,32.53
2018-01-27T11:59:14.728Z,35.13
2018-01-27T12:04:17.469Z,29.40
2018-01-27T12:09:21.116Z,30.53
2018-01-27T12:14:23.757Z,34.13
2018-01-27T12:19:27.372Z,32.00
2018-01-27T12:24:30.027Z,23.53
2018-01-27T12:29:32.704Z,24.67
2018-01-27T12:34:35.372Z,22.83
2018-01-27T12:39:38.085Z,28.03
2018-01-27T12:44:41.535Z,31.40
2018-01-27T12:49:44.283Z,26.17
2018-01-27T12:54:46.905Z,14.70
2018-01-27T12:59:54.121Z,13.70
2018-01-27T13:04:57.548Z,13.73
2018-01-27T13:10:00.838Z,13.73
2018-01-27T13:15:04.294Z,16.53
2018-01-27T13:20:07.771Z,11.57
2018-01-27T13:25:12.062Z,16.87
2018-01-27T13:30:15.188Z,17.70
2018-01-27T13:35:17.862Z,18.57
2018-01-27T13:40:21.259Z,20.60
2018-01-27T13:45:23.901Z,21.87
2018-01-27T13:50:27.019Z,25.70
2018-01-27T13:55:29.703Z,20.20
2018-01-27T14:00:32.537Z,20.13
2018-01-27T14:05:35.159Z,18.67
2018-01-27T14:10:38.817Z,18.40
2018-01-27T14:15:41.469Z,21.30
2018-01-27T14:20:46.162Z,23.70
2018-01-27T14:25:48.855Z,18.93
2018-01-27T14:30:51.948Z,27.67
2018-01-27T14:35:54.631Z,31.17
2018-01-27T14:40:58.387Z,29.20
2018-01-27T14:46:01.046Z,28.93
2018-01-27T14:51:04.532Z,26.90
2018-01-27T14:56:07.191Z,27.90
2018-01-27T15:01:09.953Z,29.67
2018-01-27T15:06:12.620Z,30.07
2018-01-27T15:11:16.241Z,28.77
2018-01-27T15:16:18.863Z,23.40
2018-01-27T15:21:22.518Z,26.53
2018-01-27T15:26:25.937Z,24.00
2018-01-27T15:31:29.514Z,23.07
2018-01-27T15:36:32.175Z,22.40
2018-01-27T15:41:36.114Z,28.23
2018-01-27T15:46:38.785Z,23.60
2018-01-27T15:51:42.681Z,24.17
2018-01-27T15:56:45.345Z,30.17
2018-01-27T16:01:48.044Z,28.57
2018-01-27T16:06:50.710Z,28.17
2018-01-27T16:11:55.550Z,26.80
2018-01-27T16:16:58.839Z,25.93
2018-01-27T16:22:02.338Z,30.50
2018-01-27T16:27:05.275Z,23.63
2018-01-27T16:32:10.348Z,23.73
2018-01-27T16:37:13.378Z,27.13
2018-01-27T16:42:16.535Z,28.77
2018-01-27T16:47:19.294Z,29.33
2018-01-27T16:52:22.214Z,32.67
2018-01-27T16:57:24.875Z,35.13
2018-01-27T17:02:27.912Z,34.63
2018-01-27T17:07:30.665Z,34.77
2018-01-27T17:12:33.853Z,38.90
2018-01-27T17:17:36.775Z,37.20
2018-01-27T17:22:39.798Z,35.13
2018-01-27T17:27:42.978Z,43.00
2018-01-27T17:32:47.286Z,43.63
2018-01-27T17:37:50.127Z,51.60
2018-01-27T17:42:52.962Z,42.97
2018-01-27T17:47:56.172Z,46.40
2018-01-27T17:52:59.519Z,45.20
2018-01-27T17:58:03.635Z,51.90
2018-01-27T18:03:07.911Z,49.27
2018-01-27T18:08:10.658Z,50.33
2018-01-27T18:13:14.034Z,51.33
2018-01-27T18:18:16.749Z,50.47
2018-01-27T18:23:20.436Z,62.77
2018-01-27T18:28:23.226Z,62.70
2018-01-27T18:33:27.407Z,69.17
2018-01-27T18:38:30.104Z,69.57
2018-01-27T18:43:33.033Z,65.33
2018-01-27T18:48:35.794Z,75.67
2018-01-27T18:53:39.024Z,69.07
2018-01-27T18:58:41.741Z,60.20
2018-01-27T19:03:44.708Z,63.63
2018-01-27T19:08:47.437Z,58.63
2018-01-27T19:13:50.154Z,63.07
2018-01-27T19:18:53.612Z,60.47
2018-01-27T19:23:58.092Z,66.30
2018-01-27T19:29:00.770Z,62.17
2018-01-27T19:34:04.288Z,60.03
2018-01-27T19:39:07.011Z,74.97
2018-01-27T19:44:10.582Z,59.37
2018-01-27T19:49:13.981Z,65.77
2018-01-27T19:54:18.351Z,63.73
2018-01-27T19:59:21.828Z,61.50
2018-01-27T20:04:24.719Z,57.80
2018-01-27T20:09:27.417Z,58.23
2018-01-27T20:14:30.830Z,63.30
2018-01-27T20:19:34.304Z,56.47
2018-01-27T20:24:38.143Z,59.47
2018-01-27T20:29:40.811Z,75.60
2018-01-27T20:34:44.016Z,57.47
2018-01-27T20:39:46.750Z,50.70
2018-01-27T20:44:50.273Z,53.00
2018-01-27T20:49:53.795Z,54.70
2018-01-27T20:54:56.974Z,58.73
2018-01-27T21:00:00.869Z,55.57
2018-01-27T21:05:03.737Z,49.60
2018-01-27T21:10:06.646Z,46.60
2018-01-27T21:15:09.860Z,49.87
2018-01-27T21:20:12.649Z,51.17
2018-01-27T21:25:16.497Z,43.73
2018-01-27T21:30:19.125Z,51.17
2018-01-27T21:35:23.009Z,52.20
2018-01-27T21:40:26.013Z,48.30
2018-01-27T21:45:30.163Z,42.90
2018-01-27T21:50:33.787Z,34.00
2018-01-27T21:55:37.364Z,38.13
2018-01-27T22:00:40.026Z,23.17
2018-01-27T22:05:42.758Z,39.37
2018-01-27T22:10:46.244Z,38.57
2018-01-27T22:15:50.345Z,28.40
2018-01-27T22:20:53.253Z,38.27
2018-01-27T22:25:56.462Z,46.23
2018-01-27T22:30:59.128Z,36.90
2018-01-27T22:36:03.224Z,39.67
2018-01-27T22:41:05.937Z,36.00
2018-01-27T22:46:08.752Z,36.60
2018-01-27T22:51:11.442Z,37.87
2018-01-27T22:56:14.408Z,44.27
2018-01-27T23:01:20.932Z,38.20
2018-01-27T23:06:24.193Z,29.87
2018-01-27T23:11:27.754Z,36.07
2018-01-27T23:16:31.133Z,37.13
2018-01-27T23:21:34.636Z,36.37
2018-01-27T23:26:38.311Z,38.87
2018-01-27T23:31:41.074Z,41.00
2018-01-27T23:36:44.642Z,34.73
2018-01-27T23:41:47.518Z,31.33
2018-01-27T23:46:50.803Z,28.17
2018-01-27T23:51:53.481Z,29.90
2018-01-27T23:56:56.450Z,27.13
